Time;durP1;ratioP1;P1;durP2;ratioP2;P2;SDS_P1;SDS_P2;PMS_P1;PMS_P2;Temp;Humidity;BMP_temperature;BMP_pressure;BME280_temperature;BME280_humidity;BME280_pressure;Samples;Min_cycle;Max_cycle;Signal;HPM_P1;HPM_P2
2022/04/16 00:04:45;;;;;;;4.80;3.80;;;;;;;;;;10256484;28;20076;-63
2022/04/16 00:09:44;;;;;;;6.30;3.72;;;;;;;;;;10258742;28;20092;-64
2022/04/16 00:14:43;;;;;;;6.28;3.35;;;;;;;;;;10255782;28;20087;-64
2022/04/16 00:19:41;;;;;;;7.13;3.70;;;;;;;;;;10258822;28;20045;-64
2022/04/16 00:24:40;;;;;;;6.82;3.72;;;;;;;;;;10248651;28;20037;-64
2022/04/16 00:29:40;;;;;;;5.25;3.40;;;;;;;;;;10255366;28;20080;-63
2022/04/16 00:34:39;;;;;;;9.50;3.22;;;;;;;;;;10257963;28;20037;-64
2022/04/16 00:39:37;;;;;;;6.63;3.15;;;;;;;;;;10248324;28;20054;-63
2022/04/16 00:44:35;;;;;;;5.32;3.15;;;;;;;;;;10254125;28;20088;-64
2022/04/16 00:49:35;;;;;;;5.45;2.97;;;;;;;;;;10258459;28;20501;-64
2022/04/16 00:54:34;;;;;;;10.23;3.85;;;;;;;;;;10269309;28;20041;-64
2022/04/16 00:59:32;;;;;;;3.88;3.40;;;;;;;;;;10246740;28;20037;-64
2022/04/16 01:04:30;;;;;;;4.03;3.00;;;;;;;;;;10252654;28;20048;-64
2022/04/16 01:09:30;;;;;;;5.68;3.40;;;;;;;;;;10258654;28;20506;-64
2022/04/16 01:14:29;;;;;;;3.67;3.00;;;;;;;;;;10247137;28;20069;-65
2022/04/16 01:19:27;;;;;;;5.93;3.88;;;;;;;;;;10251243;28;20060;-65
2022/04/16 01:24:27;;;;;;;3.35;2.95;;;;;;;;;;10262290;28;20433;-64
2022/04/16 01:29:25;;;;;;;6.93;2.92;;;;;;;;;;10263431;28;20088;-65
2022/04/16 01:34:25;;;;;;;5.40;3.20;;;;;;;;;;10258446;28;20045;-64
2022/04/16 01:39:31;;;;;;;4.75;3.17;;;;;;;;;;10246264;28;20069;-65
2022/04/16 01:44:30;;;;;;;7.70;3.95;;;;;;;;;;10246220;28;20100;-64
2022/04/16 01:49:28;;;;;;;5.90;3.15;;;;;;;;;;10250264;28;20068;-65
2022/04/16 01:54:26;;;;;;;4.38;3.42;;;;;;;;;;10257678;28;20091;-64
2022/04/16 01:59:27;;;;;;;5.10;2.95;;;;;;;;;;10250067;28;20080;-64
2022/04/16 02:04:26;;;;;;;10.68;4.18;;;;;;;;;;10256978;28;20084;-64
2022/04/16 02:09:24;;;;;;;3.75;3.35;;;;;;;;;;10250019;28;20497;-65
2022/04/16 02:14:23;;;;;;;5.57;3.45;;;;;;;;;;10265154;28;20045;-64
2022/04/16 02:19:22;;;;;;;7.93;3.20;;;;;;;;;;10253110;28;20069;-64
2022/04/16 02:24:20;;;;;;;8.93;3.67;;;;;;;;;;10256682;28;20478;-64
2022/04/16 02:29:19;;;;;;;4.05;3.28;;;;;;;;;;10265663;28;20478;-64
2022/04/16 02:34:19;;;;;;;5.35;3.85;;;;;;;;;;10242445;28;20056;-64
2022/04/16 02:39:18;;;;;;;4.10;3.25;;;;;;;;;;10242639;28;20056;-65
2022/04/16 02:49:29;;;;;;;8.02;3.65;;;;;;;;;;10275603;28;20505;-64
2022/04/16 02:54:29;;;;;;;4.97;3.25;;;;;;;;;;10263732;28;20287;-64
2022/04/16 02:59:28;;;;;;;4.28;3.38;;;;;;;;;;10256643;28;20068;-64
2022/04/16 03:04:26;;;;;;;3.40;3.03;;;;;;;;;;10263877;28;20085;-64
2022/04/16 03:09:24;;;;;;;6.20;4.05;;;;;;;;;;10250592;28;20083;-64
2022/04/16 03:19:40;;;;;;;6.47;3.53;;;;;;;;;;10261107;28;20478;-63
2022/04/16 03:24:38;;;;;;;4.35;3.17;;;;;;;;;;10255263;28;20049;-64
2022/04/16 03:29:38;;;;;;;8.77;3.85;;;;;;;;;;10266917;28;20091;-64
2022/04/16 03:34:37;;;;;;;4.82;4.13;;;;;;;;;;10260734;28;20053;-65
2022/04/16 03:39:35;;;;;;;4.57;3.15;;;;;;;;;;10251085;28;20077;-63
2022/04/16 03:44:34;;;;;;;3.80;3.15;;;;;;;;;;10249798;28;20525;-64
2022/04/16 03:49:33;;;;;;;4.03;3.38;;;;;;;;;;10239502;28;20052;-64
2022/04/16 04:00:03;;;;;;;4.72;4.18;;;;;;;;;;10238544;28;20069;-65
2022/04/16 04:05:10;;;;;;;4.88;3.00;;;;;;;;;;10249706;28;20061;-64
2022/04/16 04:10:10;;;;;;;6.28;3.80;;;;;;;;;;10249982;28;20100;-64
2022/04/16 04:15:09;;;;;;;14.48;5.82;;;;;;;;;;10249231;28;20077;-64
2022/04/16 04:20:08;;;;;;;5.95;3.58;;;;;;;;;;10248616;28;20486;-64
2022/04/16 04:25:08;;;;;;;3.92;3.28;;;;;;;;;;10259419;28;20470;-64
2022/04/16 04:30:07;;;;;;;6.05;3.65;;;;;;;;;;10264853;28;20470;-64
2022/04/16 04:35:06;;;;;;;4.65;3.10;;;;;;;;;;10265151;28;20459;-64
2022/04/16 04:40:05;;;;;;;6.72;3.10;;;;;;;;;;10253507;28;20084;-64
2022/04/16 04:45:08;;;;;;;8.43;4.03;;;;;;;;;;10257332;28;20088;-64
2022/04/16 04:50:07;;;;;;;7.43;3.55;;;;;;;;;;10263164;28;20087;-64
2022/04/16 04:55:08;;;;;;;3.90;3.25;;;;;;;;;;10275593;28;20088;-64
2022/04/16 05:00:10;;;;;;;5.78;3.80;;;;;;;;;;10272695;28;20087;-65
2022/04/16 05:05:09;;;;;;;7.80;3.67;;;;;;;;;;10233444;28;20084;-62
2022/04/16 05:10:08;;;;;;;8.75;4.50;;;;;;;;;;10258005;28;20527;-65
2022/04/16 05:15:07;;;;;;;11.70;4.55;;;;;;;;;;10258643;28;20076;-63
2022/04/16 05:20:09;;;;;;;4.55;3.15;;;;;;;;;;10265861;28;20488;-64
2022/04/16 05:25:08;;;;;;;11.25;3.97;;;;;;;;;;10265539;28;20532;-63
2022/04/16 05:30:12;;;;;;;10.25;5.53;;;;;;;;;;10253931;28;20065;-64
2022/04/16 05:35:12;;;;;;;9.27;5.82;;;;;;;;;;10255744;28;20457;-64
2022/04/16 05:40:11;;;;;;;16.75;7.72;;;;;;;;;;10254410;28;20493;-64
2022/04/16 05:45:14;;;;;;;17.15;10.65;;;;;;;;;;10271126;28;20489;-64
2022/04/16 05:50:14;;;;;;;23.02;16.48;;;;;;;;;;10259564;28;20076;-65
2022/04/16 05:55:13;;;;;;;17.50;13.68;;;;;;;;;;10263839;28;20067;-64
2022/04/16 06:00:13;;;;;;;14.60;12.52;;;;;;;;;;10252108;28;20061;-64
2022/04/16 06:05:13;;;;;;;14.75;9.05;;;;;;;;;;10256415;28;20395;-64
2022/04/16 06:10:12;;;;;;;17.95;9.45;;;;;;;;;;10257899;28;20560;-64
2022/04/16 06:15:11;;;;;;;15.75;8.60;;;;;;;;;;10250250;28;20315;-65
2022/04/16 06:20:10;;;;;;;13.20;8.63;;;;;;;;;;10276983;28;20099;-64
2022/04/16 06:25:09;;;;;;;14.93;9.68;;;;;;;;;;10245113;28;20049;-66
2022/04/16 06:30:10;;;;;;;15.73;9.07;;;;;;;;;;10238063;28;20077;-65
2022/04/16 06:35:12;;;;;;;16.30;9.05;;;;;;;;;;10252700;28;20497;-65
2022/04/16 06:40:10;;;;;;;13.07;8.43;;;;;;;;;;10246750;28;20073;-66
2022/04/16 06:45:11;;;;;;;13.70;8.98;;;;;;;;;;10248163;28;20679;-66
2022/04/16 06:50:10;;;;;;;11.93;7.75;;;;;;;;;;10253672;28;20556;-66
2022/04/16 06:55:12;;;;;;;12.15;9.02;;;;;;;;;;10246677;28;20087;-65
2022/04/16 07:00:12;;;;;;;11.98;7.88;;;;;;;;;;10246877;28;20084;-66
2022/04/16 07:05:10;;;;;;;15.60;8.55;;;;;;;;;;10250281;28;20107;-66
2022/04/16 07:10:11;;;;;;;13.80;8.07;;;;;;;;;;10248110;28;20073;-66
2022/04/16 07:15:10;;;;;;;11.38;8.23;;;;;;;;;;10259803;28;20076;-65
2022/04/16 07:20:10;;;;;;;13.02;9.70;;;;;;;;;;10255015;28;20065;-64
2022/04/16 07:25:09;;;;;;;10.18;7.80;;;;;;;;;;10239624;28;20084;-63
2022/04/16 07:30:07;;;;;;;12.80;7.22;;;;;;;;;;10259154;28;20068;-65
2022/04/16 07:35:06;;;;;;;13.90;6.60;;;;;;;;;;10275097;28;20075;-64
2022/04/16 07:40:07;;;;;;;20.98;9.23;;;;;;;;;;10260158;28;20079;-63
2022/04/16 07:45:05;;;;;;;11.88;7.10;;;;;;;;;;10259626;28;20085;-64
2022/04/16 07:50:04;;;;;;;10.38;7.05;;;;;;;;;;10264018;28;20068;-64
2022/04/16 07:55:02;;;;;;;25.95;7.35;;;;;;;;;;10268346;28;20091;-64
2022/04/16 08:00:02;;;;;;;17.55;9.68;;;;;;;;;;10274086;28;20076;-65
2022/04/16 08:05:09;;;;;;;11.90;8.05;;;;;;;;;;10264474;28;20083;-65
2022/04/16 08:10:08;;;;;;;21.27;10.35;;;;;;;;;;10258107;28;20530;-64
2022/04/16 08:15:09;;;;;;;14.32;7.82;;;;;;;;;;10249947;28;20085;-64
2022/04/16 08:20:09;;;;;;;11.63;8.23;;;;;;;;;;10260466;28;20103;-64
2022/04/16 08:30:24;;;;;;;19.50;11.52;;;;;;;;;;10261936;28;20092;-65
2022/04/16 08:35:23;;;;;;;16.23;8.13;;;;;;;;;;10261158;28;20091;-65
2022/04/16 08:40:21;;;;;;;12.25;7.38;;;;;;;;;;10235377;28;20510;-64
2022/04/16 08:45:19;;;;;;;11.48;7.15;;;;;;;;;;10245446;28;20046;-64
2022/04/16 08:50:19;;;;;;;84.63;15.80;;;;;;;;;;10245790;28;20076;-64
2022/04/16 08:55:17;;;;;;;13.20;7.80;;;;;;;;;;10257971;28;20083;-64
2022/04/16 09:00:16;;;;;;;11.82;8.00;;;;;;;;;;10262547;28;20045;-64
2022/04/16 09:05:15;;;;;;;10.50;7.57;;;;;;;;;;10251491;28;20053;-64
2022/04/16 09:10:15;;;;;;;8.27;7.45;;;;;;;;;;10277123;28;20457;-64
2022/04/16 09:15:14;;;;;;;10.18;7.82;;;;;;;;;;10259815;28;20572;-64
2022/04/16 09:20:12;;;;;;;10.13;6.97;;;;;;;;;;10232856;28;20471;-64
2022/04/16 09:25:16;;;;;;;12.80;7.55;;;;;;;;;;10251107;28;20064;-64
2022/04/16 09:30:22;;;;;;;11.68;8.20;;;;;;;;;;10273131;28;20475;-64
2022/04/16 09:35:29;;;;;;;15.45;10.93;;;;;;;;;;10261116;28;20088;-64
2022/04/16 09:40:46;;;;;;;27.85;8.48;;;;;;;;;;10245547;28;20065;-66
2022/04/16 09:45:44;;;;;;;11.93;7.57;;;;;;;;;;10259274;28;20568;-65
2022/04/16 09:50:43;;;;;;;8.80;6.40;;;;;;;;;;10248700;28;20075;-66
2022/04/16 09:55:43;;;;;;;13.38;7.50;;;;;;;;;;10269268;28;20076;-67
2022/04/16 10:00:42;;;;;;;21.23;11.70;;;;;;;;;;10252627;28;20061;-64
2022/04/16 10:06:00;;;;;;;15.52;8.48;;;;;;;;;;10256539;28;20076;-63
2022/04/16 10:11:03;;;;;;;16.15;8.90;;;;;;;;;;10231390;28;20046;-63
2022/04/16 10:16:04;;;;;;;15.68;7.55;;;;;;;;;;10242508;28;20488;-63
2022/04/16 10:21:03;;;;;;;13.85;7.15;;;;;;;;;;10231467;28;20076;-63
2022/04/16 10:26:09;;;;;;;13.50;8.45;;;;;;;;;;10252513;28;20061;-63
2022/04/16 10:31:08;;;;;;;15.02;9.25;;;;;;;;;;10264278;28;20095;-63
2022/04/16 10:36:09;;;;;;;67.75;12.43;;;;;;;;;;10267154;28;20083;-63
2022/04/16 10:41:12;;;;;;;13.82;7.45;;;;;;;;;;10272472;28;20083;-64
2022/04/16 10:46:39;;;;;;;9.98;7.97;;;;;;;;;;10271052;28;20068;-64
2022/04/16 10:51:38;;;;;;;11.98;8.90;;;;;;;;;;10273290;28;20528;-64
2022/04/16 10:56:40;;;;;;;9.82;7.70;;;;;;;;;;10276896;28;20064;-64
2022/04/16 11:01:38;;;;;;;17.00;7.45;;;;;;;;;;10278189;28;20501;-63
2022/04/16 11:06:37;;;;;;;13.00;6.72;;;;;;;;;;10273321;28;20083;-63
2022/04/16 11:11:38;;;;;;;12.18;5.97;;;;;;;;;;10271667;28;20069;-62
2022/04/16 11:16:44;;;;;;;11.07;7.10;;;;;;;;;;10276727;28;20064;-63
2022/04/16 11:21:43;;;;;;;12.52;6.53;;;;;;;;;;10272016;28;20029;-63
2022/04/16 11:37:15;;;;;;;8.40;6.00;;;;;;;;;;10276913;28;20469;-63
2022/04/16 11:42:14;;;;;;;9.88;6.45;;;;;;;;;;10276488;28;20502;-62
2022/04/16 11:47:15;;;;;;;9.55;6.57;;;;;;;;;;10271444;28;20068;-64
2022/04/16 11:52:14;;;;;;;8.85;6.15;;;;;;;;;;10271448;28;20073;-62
2022/04/16 11:57:20;;;;;;;9.27;5.22;;;;;;;;;;10270319;28;20064;-63
2022/04/16 12:02:20;;;;;;;7.63;5.57;;;;;;;;;;10265755;28;20709;-62
2022/04/16 12:07:18;;;;;;;10.50;6.38;;;;;;;;;;10238377;28;20095;-62
2022/04/16 12:12:17;;;;;;;9.30;6.10;;;;;;;;;;10235513;28;20065;-63
2022/04/16 12:17:27;;;;;;;9.68;6.35;;;;;;;;;;10235288;28;20061;-64
2022/04/16 12:22:25;;;;;;;14.57;6.25;;;;;;;;;;10235244;28;20073;-64
2022/04/16 12:27:26;;;;;;;6.50;4.97;;;;;;;;;;10235109;28;20081;-64
2022/04/16 12:32:26;;;;;;;10.95;6.15;;;;;;;;;;10247718;28;20049;-64
2022/04/16 12:37:26;;;;;;;13.25;4.95;;;;;;;;;;10238268;28;20073;-63
2022/04/16 12:42:24;;;;;;;6.95;5.25;;;;;;;;;;10240486;28;20088;-63
2022/04/16 12:47:22;;;;;;;12.50;5.88;;;;;;;;;;10242851;28;20076;-63
2022/04/16 12:52:20;;;;;;;11.77;4.38;;;;;;;;;;10249927;28;20076;-64
2022/04/16 12:57:20;;;;;;;5.80;4.10;;;;;;;;;;10237528;28;20083;-63
2022/04/16 13:02:18;;;;;;;12.43;5.40;;;;;;;;;;10251161;28;20658;-62
2022/04/16 13:07:18;;;;;;;6.93;5.07;;;;;;;;;;10269141;28;20119;-66
2022/04/16 13:12:18;;;;;;;11.38;5.03;;;;;;;;;;10241801;28;20045;-66
2022/04/16 13:17:18;;;;;;;10.52;4.80;;;;;;;;;;10236883;28;20486;-65
2022/04/16 13:22:16;;;;;;;7.78;5.13;;;;;;;;;;10243257;28;20053;-65
2022/04/16 13:27:14;;;;;;;9.48;6.28;;;;;;;;;;10255220;28;20072;-65
2022/04/16 13:32:14;;;;;;;12.82;5.57;;;;;;;;;;10242527;28;20103;-65
2022/04/16 13:37:14;;;;;;;6.28;4.85;;;;;;;;;;10258653;28;20080;-65
2022/04/16 13:42:12;;;;;;;9.10;5.90;;;;;;;;;;10248605;28;20084;-65
2022/04/16 13:47:11;;;;;;;5.90;4.75;;;;;;;;;;10250622;28;20068;-65
2022/04/16 13:52:09;;;;;;;11.18;5.15;;;;;;;;;;10254179;28;20138;-66
2022/04/16 13:57:09;;;;;;;12.10;4.25;;;;;;;;;;10241133;28;20065;-65
2022/04/16 14:02:08;;;;;;;7.60;4.20;;;;;;;;;;10249047;28;20065;-65
2022/04/16 14:07:06;;;;;;;7.88;4.78;;;;;;;;;;10241437;28;20506;-65
2022/04/16 14:12:05;;;;;;;5.90;3.92;;;;;;;;;;10257259;28;20068;-65
2022/04/16 14:17:04;;;;;;;11.23;7.80;;;;;;;;;;10239418;28;20069;-67
2022/04/16 14:22:03;;;;;;;8.88;4.93;;;;;;;;;;10252925;28;20103;-68
2022/04/16 14:27:03;;;;;;;9.70;4.57;;;;;;;;;;10250040;28;20068;-67
2022/04/16 14:32:04;;;;;;;7.72;4.50;;;;;;;;;;10247126;28;20069;-67
2022/04/16 14:37:06;;;;;;;7.53;5.00;;;;;;;;;;10252121;28;20069;-68
2022/04/16 14:42:10;;;;;;;11.80;6.63;;;;;;;;;;10264181;28;20099;-68
2022/04/16 14:47:09;;;;;;;12.13;7.63;;;;;;;;;;10257268;28;20502;-67
2022/04/16 14:52:08;;;;;;;17.90;8.88;;;;;;;;;;10238627;28;20053;-67
2022/04/16 14:57:07;;;;;;;15.10;5.18;;;;;;;;;;10260887;28;20072;-67
2022/04/16 15:02:05;;;;;;;6.28;3.90;;;;;;;;;;10258875;28;20065;-68
2022/04/16 15:07:04;;;;;;;9.80;5.75;;;;;;;;;;10238754;28;20458;-67
2022/04/16 15:12:05;;;;;;;11.30;5.47;;;;;;;;;;10242774;28;20072;-67
2022/04/16 15:17:04;;;;;;;9.63;5.55;;;;;;;;;;10260149;28;20061;-67
2022/04/16 15:22:02;;;;;;;8.48;5.53;;;;;;;;;;10243089;28;20061;-68
2022/04/16 15:27:01;;;;;;;6.95;4.50;;;;;;;;;;10236128;28;20068;-67
2022/04/16 15:32:00;;;;;;;8.05;4.75;;;;;;;;;;10237782;28;20072;-68
2022/04/16 15:36:58;;;;;;;7.60;5.47;;;;;;;;;;10237429;28;20064;-67
2022/04/16 15:41:57;;;;;;;15.35;6.05;;;;;;;;;;10234134;28;20080;-67
2022/04/16 15:46:55;;;;;;;12.02;5.60;;;;;;;;;;10231191;28;20084;-67
2022/04/16 15:51:57;;;;;;;8.02;5.22;;;;;;;;;;10232527;28;20072;-67
2022/04/16 15:56:55;;;;;;;7.75;4.65;;;;;;;;;;10235243;28;20069;-67
2022/04/16 16:01:54;;;;;;;11.15;5.63;;;;;;;;;;10240311;28;20095;-66
2022/04/16 16:06:52;;;;;;;13.27;7.13;;;;;;;;;;10234973;28;20068;-66
2022/04/16 16:11:52;;;;;;;11.18;6.32;;;;;;;;;;10248436;28;20479;-67
2022/04/16 16:16:50;;;;;;;12.95;7.53;;;;;;;;;;10268109;28;20072;-64
2022/04/16 16:21:48;;;;;;;11.32;7.35;;;;;;;;;;10252851;28;20072;-65
2022/04/16 16:26:47;;;;;;;13.02;10.00;;;;;;;;;;10258067;28;20077;-66
2022/04/16 16:31:47;;;;;;;14.70;8.07;;;;;;;;;;10235113;28;20510;-65
2022/04/16 16:36:46;;;;;;;12.35;8.65;;;;;;;;;;10233887;28;20089;-65
2022/04/16 16:41:44;;;;;;;10.93;9.45;;;;;;;;;;10232613;28;20152;-65
2022/04/16 16:46:43;;;;;;;11.65;7.57;;;;;;;;;;10225854;28;20446;-65
2022/04/16 16:51:43;;;;;;;36.65;23.60;;;;;;;;;;10227129;28;20061;-65
2022/04/16 16:56:42;;;;;;;44.58;30.52;;;;;;;;;;10228173;28;20076;-64
2022/04/16 17:01:44;;;;;;;41.50;30.20;;;;;;;;;;10233739;28;20454;-64
2022/04/16 17:06:44;;;;;;;35.53;23.40;;;;;;;;;;10233888;28;20072;-64
2022/04/16 17:11:43;;;;;;;26.27;17.13;;;;;;;;;;10234474;28;20073;-64
2022/04/16 17:21:59;;;;;;;23.75;11.48;;;;;;;;;;10232647;28;20139;-64
2022/04/16 17:26:59;;;;;;;18.33;10.80;;;;;;;;;;10232601;28;20065;-63
2022/04/16 17:31:58;;;;;;;16.27;7.80;;;;;;;;;;10246999;28;20041;-63
2022/04/16 17:36:58;;;;;;;19.95;8.73;;;;;;;;;;10232260;28;20076;-63
2022/04/16 17:42:09;;;;;;;12.02;9.13;;;;;;;;;;10230442;28;20104;-64
2022/04/16 17:47:07;;;;;;;17.08;11.35;;;;;;;;;;10231391;28;20107;-63
2022/04/16 17:52:07;;;;;;;24.55;16.23;;;;;;;;;;10232141;28;20073;-63
2022/04/16 17:57:07;;;;;;;19.90;15.25;;;;;;;;;;10231621;28;20076;-63
2022/04/16 18:02:05;;;;;;;27.35;16.35;;;;;;;;;;10247572;28;20077;-63
2022/04/16 18:07:04;;;;;;;13.27;9.90;;;;;;;;;;10232734;28;20065;-64
2022/04/16 18:12:04;;;;;;;12.60;8.90;;;;;;;;;;10231914;28;20081;-64
2022/04/16 18:17:04;;;;;;;14.68;8.13;;;;;;;;;;10232337;28;20077;-64
2022/04/16 18:22:03;;;;;;;18.15;9.82;;;;;;;;;;10232937;28;20061;-64
2022/04/16 18:27:03;;;;;;;11.27;7.82;;;;;;;;;;10232787;28;20056;-63
2022/04/16 18:32:02;;;;;;;16.75;10.05;;;;;;;;;;10229071;28;20069;-64
2022/04/16 18:37:01;;;;;;;11.18;8.23;;;;;;;;;;10230893;28;20064;-63
2022/04/16 18:41:59;;;;;;;9.18;7.13;;;;;;;;;;10231158;28;20073;-64
2022/04/16 18:46:59;;;;;;;10.43;7.60;;;;;;;;;;10231291;28;20451;-64
2022/04/16 18:51:59;;;;;;;10.75;7.85;;;;;;;;;;10229342;28;20065;-63
2022/04/16 18:56:57;;;;;;;14.80;7.57;;;;;;;;;;10237342;28;20069;-63
2022/04/16 19:07:13;;;;;;;9.93;8.85;;;;;;;;;;10237676;28;20049;-64
2022/04/16 19:12:12;;;;;;;13.02;8.73;;;;;;;;;;10237437;28;20079;-63
2022/04/16 19:17:11;;;;;;;13.57;11.38;;;;;;;;;;10250908;28;20072;-63
2022/04/16 19:22:10;;;;;;;19.50;16.85;;;;;;;;;;10237911;28;20069;-63
2022/04/16 19:27:12;;;;;;;13.25;10.63;;;;;;;;;;10237743;28;20378;-64
2022/04/16 19:32:11;;;;;;;12.63;9.60;;;;;;;;;;10237651;28;20064;-64
2022/04/16 19:37:10;;;;;;;22.00;13.80;;;;;;;;;;10236996;28;20072;-64
2022/04/16 19:42:10;;;;;;;25.30;17.40;;;;;;;;;;10236975;28;20084;-64
2022/04/16 19:47:10;;;;;;;15.80;14.05;;;;;;;;;;10242616;28;20084;-64
2022/04/16 19:52:08;;;;;;;14.90;7.25;;;;;;;;;;10245779;28;20068;-63
2022/04/16 19:57:06;;;;;;;13.07;8.52;;;;;;;;;;10246835;28;20447;-63
2022/04/16 20:02:05;;;;;;;11.43;7.40;;;;;;;;;;10238736;28;20057;-62
2022/04/16 20:07:04;;;;;;;8.95;6.68;;;;;;;;;;10237989;28;20076;-63
2022/04/16 20:12:03;;;;;;;8.38;6.25;;;;;;;;;;10235372;28;20076;-63
2022/04/16 20:17:01;;;;;;;7.00;5.35;;;;;;;;;;10252843;28;20069;-62
2022/04/16 20:22:00;;;;;;;8.27;5.18;;;;;;;;;;10254759;28;20081;-62
2022/04/16 20:27:00;;;;;;;11.07;6.45;;;;;;;;;;10235830;28;20068;-62
2022/04/16 20:32:00;;;;;;;16.00;9.73;;;;;;;;;;10234864;28;20057;-62
2022/04/16 20:36:58;;;;;;;14.02;7.53;;;;;;;;;;10235145;28;20077;-62
2022/04/16 20:47:14;;;;;;;6.40;5.72;;;;;;;;;;10236385;28;20064;-62
2022/04/16 20:57:27;;;;;;;7.82;5.35;;;;;;;;;;10239444;28;20506;-62
2022/04/16 21:02:27;;;;;;;6.20;4.43;;;;;;;;;;10238323;28;20068;-63
2022/04/16 21:07:27;;;;;;;13.55;5.30;;;;;;;;;;10240299;28;20069;-63
2022/04/16 21:12:25;;;;;;;5.97;5.15;;;;;;;;;;10243350;28;20080;-62
2022/04/16 21:17:24;;;;;;;5.63;4.72;;;;;;;;;;10240153;28;20091;-62
2022/04/16 21:22:23;;;;;;;7.10;4.20;;;;;;;;;;10233132;28;20514;-63
2022/04/16 21:27:22;;;;;;;5.47;4.65;;;;;;;;;;10257115;28;20524;-63
2022/04/16 21:32:20;;;;;;;8.40;4.82;;;;;;;;;;10251240;28;20467;-63
2022/04/16 21:37:18;;;;;;;7.63;5.07;;;;;;;;;;10249780;28;20072;-63
2022/04/16 21:42:18;;;;;;;7.70;3.63;;;;;;;;;;10254668;28;20080;-62
2022/04/16 21:47:16;;;;;;;4.22;3.65;;;;;;;;;;10260026;28;20080;-62
2022/04/16 21:52:15;;;;;;;3.63;2.78;;;;;;;;;;10270627;28;20075;-62
2022/04/16 21:57:13;;;;;;;4.80;3.38;;;;;;;;;;10246974;28;20079;-63
2022/04/16 22:02:13;;;;;;;4.03;3.10;;;;;;;;;;10235015;28;20029;-63
2022/04/16 22:07:11;;;;;;;5.53;2.92;;;;;;;;;;10263932;28;20065;-63
2022/04/16 22:12:09;;;;;;;3.33;2.95;;;;;;;;;;10245304;28;20072;-63
2022/04/16 22:17:08;;;;;;;3.70;2.50;;;;;;;;;;10260060;28;20065;-63
2022/04/16 22:22:07;;;;;;;8.65;3.15;;;;;;;;;;10232229;28;20069;-63
2022/04/16 22:27:05;;;;;;;2.40;2.17;;;;;;;;;;10232815;28;20077;-63
2022/04/16 22:32:04;;;;;;;3.38;2.58;;;;;;;;;;10239804;28;20491;-63
2022/04/16 22:42:19;;;;;;;3.88;2.35;;;;;;;;;;10239194;28;20072;-63
2022/04/16 22:47:18;;;;;;;2.40;2.20;;;;;;;;;;10238150;28;20077;-63
2022/04/16 22:52:16;;;;;;;3.40;2.45;;;;;;;;;;10239450;28;20428;-63
2022/04/16 22:57:14;;;;;;;3.78;2.63;;;;;;;;;;10238635;28;20065;-62
2022/04/16 23:02:14;;;;;;;3.47;2.70;;;;;;;;;;10243845;28;20057;-63
2022/04/16 23:07:12;;;;;;;2.97;2.45;;;;;;;;;;10244665;28;20494;-62
2022/04/16 23:12:11;;;;;;;2.95;2.65;;;;;;;;;;10237796;28;20521;-62
2022/04/16 23:17:09;;;;;;;3.55;3.25;;;;;;;;;;10241221;28;20095;-63
2022/04/16 23:22:08;;;;;;;3.15;2.47;;;;;;;;;;10236937;28;20064;-62
2022/04/16 23:27:07;;;;;;;4.63;2.83;;;;;;;;;;10238002;28;20447;-63
2022/04/16 23:32:05;;;;;;;4.63;3.15;;;;;;;;;;10237808;28;20114;-63
2022/04/16 23:37:04;;;;;;;3.75;3.10;;;;;;;;;;10237459;28;20073;-63
2022/04/16 23:42:03;;;;;;;6.63;2.90;;;;;;;;;;10234295;28;20087;-63
2022/04/16 23:47:02;;;;;;;3.30;2.88;;;;;;;;;;10235945;28;20065;-64
2022/04/16 23:52:00;;;;;;;6.70;3.45;;;;;;;;;;10237169;28;20532;-63
2022/04/16 23:56:58;;;;;;;5.22;2.25;;;;;;;;;;10234880;28;20065;-63
